createdAt,value
2024-05-09T00:00:36.478Z,27.17
2024-05-09T00:03:07.000Z,28.42
2024-05-09T00:05:37.089Z,28.58
2024-05-09T00:08:06.065Z,28.05
2024-05-09T00:10:37.241Z,29.23
2024-05-09T00:13:06.176Z,29.17
2024-05-09T00:15:33.484Z,27.83
2024-05-09T00:18:00.958Z,30.65
2024-05-09T00:20:33.538Z,29.70
2024-05-09T00:23:08.428Z,30.42
2024-05-09T00:25:35.897Z,31.67
2024-05-09T00:28:02.843Z,31.67
2024-05-09T00:30:34.579Z,31.10
2024-05-09T00:33:04.747Z,32.35
2024-05-09T00:35:32.525Z,32.20
2024-05-09T00:37:59.737Z,32.20
2024-05-09T00:40:38.974Z,31.95
2024-05-09T00:43:08.738Z,31.15
2024-05-09T00:45:35.727Z,30.77
2024-05-09T00:48:04.528Z,30.58
2024-05-09T00:50:36.430Z,29.90
2024-05-09T00:53:06.016Z,30.48
2024-05-09T00:55:37.105Z,31.70
2024-05-09T00:58:07.488Z,31.05
2024-05-09T01:00:39.249Z,32.25
2024-05-09T01:03:08.470Z,31.65
2024-05-09T01:05:37.821Z,32.97
2024-05-09T01:08:05.980Z,33.05
2024-05-09T01:10:36.396Z,32.40
2024-05-09T01:13:03.797Z,34.50
2024-05-09T01:15:30.854Z,34.33
2024-05-09T01:17:58.763Z,33.75
2024-05-09T01:20:36.844Z,32.78
2024-05-09T01:23:12.251Z,32.28
2024-05-09T01:25:39.775Z,33.83
2024-05-09T01:28:06.897Z,34.17
2024-05-09T01:30:36.260Z,35.78
2024-05-09T01:33:06.136Z,35.03
2024-05-09T01:35:34.561Z,34.90
2024-05-09T01:38:01.510Z,35.25
2024-05-09T01:40:37.813Z,34.78
2024-05-09T01:43:07.041Z,34.83
2024-05-09T01:45:34.075Z,33.58
2024-05-09T01:48:01.639Z,35.05
2024-05-09T01:50:37.503Z,33.15
2024-05-09T01:53:07.841Z,34.50
2024-05-09T01:55:37.500Z,34.33
2024-05-09T01:58:04.824Z,32.72
2024-05-09T02:00:38.796Z,34.47
2024-05-09T02:03:09.299Z,35.33
2024-05-09T02:05:36.734Z,35.00
2024-05-09T02:08:04.208Z,35.15
2024-05-09T02:10:32.985Z,35.38
2024-05-09T02:13:03.034Z,34.95
2024-05-09T02:15:29.799Z,32.65
2024-05-09T02:17:56.829Z,35.67
2024-05-09T02:20:33.048Z,34.95
2024-05-09T02:23:03.144Z,34.65
2024-05-09T02:25:30.090Z,35.55
2024-05-09T02:27:56.871Z,35.25
2024-05-09T02:30:36.108Z,36.17
2024-05-09T02:33:07.811Z,33.33
2024-05-09T02:35:35.178Z,38.15
2024-05-09T02:38:02.232Z,36.55
2024-05-09T02:40:36.410Z,35.80
2024-05-09T02:43:05.943Z,36.58
2024-05-09T02:45:35.472Z,37.75
2024-05-09T02:48:02.756Z,39.72
2024-05-09T02:50:36.967Z,42.15
2024-05-09T02:53:06.469Z,41.15
2024-05-09T02:55:33.944Z,39.65
2024-05-09T02:58:00.801Z,37.83
2024-05-09T03:00:36.630Z,41.33
2024-05-09T03:03:12.394Z,39.65
2024-05-09T03:05:41.704Z,39.83
2024-05-09T03:08:08.943Z,41.47
2024-05-09T03:10:38.341Z,42.70
2024-05-09T03:13:06.828Z,41.42
2024-05-09T03:15:33.697Z,42.13
2024-05-09T03:18:00.737Z,42.47
2024-05-09T03:20:34.519Z,41.50
2024-05-09T03:23:03.280Z,41.75
2024-05-09T03:25:30.291Z,42.90
2024-05-09T03:27:57.120Z,42.20
2024-05-09T03:30:31.131Z,42.03
2024-05-09T03:33:10.083Z,41.30
2024-05-09T03:35:39.856Z,41.10
2024-05-09T03:38:06.738Z,39.53
2024-05-09T03:40:33.669Z,41.10
2024-05-09T03:43:00.394Z,41.92
2024-05-09T03:45:27.164Z,40.10
2024-05-09T03:47:54.200Z,42.00
2024-05-09T03:50:26.462Z,40.92
2024-05-09T03:53:03.000Z,42.63
2024-05-09T03:55:30.007Z,43.67
2024-05-09T03:57:57.015Z,41.90
2024-05-09T04:00:31.294Z,42.90
2024-05-09T04:03:05.934Z,43.20
2024-05-09T04:05:34.486Z,41.78
2024-05-09T04:08:04.814Z,40.72
2024-05-09T04:10:34.186Z,41.50
2024-05-09T04:13:02.309Z,40.55
2024-05-09T04:15:29.446Z,40.92
2024-05-09T04:17:56.646Z,40.15
2024-05-09T04:20:33.399Z,39.65
2024-05-09T04:23:11.595Z,38.90
2024-05-09T04:25:40.707Z,39.80
2024-05-09T04:28:07.566Z,36.75
2024-05-09T04:30:38.811Z,37.75
2024-05-09T04:33:10.769Z,36.67
2024-05-09T04:35:39.486Z,40.30
2024-05-09T04:38:09.414Z,39.00
2024-05-09T04:40:37.490Z,38.65
2024-05-09T04:43:05.943Z,37.67
2024-05-09T04:45:33.175Z,38.60
2024-05-09T04:48:00.806Z,39.80
2024-05-09T04:50:35.830Z,40.17
2024-05-09T04:53:10.075Z,38.85
2024-05-09T04:55:37.977Z,36.40
2024-05-09T04:58:06.830Z,37.20
2024-05-09T05:00:37.406Z,36.53
2024-05-09T05:03:08.313Z,35.65
2024-05-09T05:05:38.046Z,35.05
2024-05-09T05:08:10.674Z,35.00
2024-05-09T05:10:37.582Z,36.08
2024-05-09T05:13:04.836Z,37.92
2024-05-09T05:15:31.649Z,38.03
2024-05-09T05:17:58.696Z,38.88
2024-05-09T05:20:32.699Z,38.65
2024-05-09T05:23:00.930Z,40.13
2024-05-09T05:25:30.561Z,39.42
2024-05-09T05:27:57.323Z,37.78
2024-05-09T05:30:29.097Z,36.80
2024-05-09T05:33:01.374Z,38.67
2024-05-09T05:35:28.533Z,37.40
2024-05-09T05:37:55.565Z,35.75
2024-05-09T05:40:28.714Z,36.90
2024-05-09T05:43:05.853Z,36.45
2024-05-09T05:45:32.827Z,37.15
2024-05-09T05:47:59.961Z,34.53
2024-05-09T05:50:32.834Z,34.75
2024-05-09T05:53:03.479Z,32.55
2024-05-09T05:55:30.441Z,31.95
2024-05-09T05:57:57.230Z,32.60
2024-05-09T06:00:34.387Z,30.65
2024-05-09T06:03:05.536Z,29.63
2024-05-09T06:05:32.930Z,28.60
2024-05-09T06:08:00.099Z,27.23
2024-05-09T06:10:36.981Z,25.83
2024-05-09T06:13:06.708Z,25.33
2024-05-09T06:15:36.193Z,24.30
2024-05-09T06:18:05.763Z,24.55
2024-05-09T06:20:36.480Z,27.10
2024-05-09T06:23:05.514Z,24.75
2024-05-09T06:25:32.628Z,25.73
2024-05-09T06:27:59.950Z,24.73
2024-05-09T06:30:36.537Z,22.70
2024-05-09T06:33:11.186Z,21.02
2024-05-09T06:35:40.093Z,19.23
2024-05-09T06:38:07.445Z,16.58
2024-05-09T06:40:39.169Z,14.35
2024-05-09T06:43:11.045Z,13.65
2024-05-09T06:45:39.051Z,11.27
2024-05-09T06:48:09.831Z,10.32
2024-05-09T06:50:38.833Z,9.88
2024-05-09T06:53:06.952Z,8.40
2024-05-09T06:55:33.938Z,9.25
2024-05-09T06:58:00.890Z,8.75
2024-05-09T07:00:35.641Z,7.97
2024-05-09T07:03:12.752Z,8.05
2024-05-09T07:05:44.022Z,7.40
2024-05-09T07:08:11.337Z,7.00
2024-05-09T07:10:38.556Z,6.25
2024-05-09T07:13:08.376Z,6.82
2024-05-09T07:15:35.235Z,5.72
2024-05-09T07:18:11.074Z,6.32
2024-05-09T07:20:38.993Z,7.10
2024-05-09T07:23:08.898Z,6.28
2024-05-09T07:25:36.011Z,6.10
2024-05-09T07:28:02.903Z,6.07
2024-05-09T07:30:33.593Z,5.05
2024-05-09T07:33:02.537Z,5.28
2024-05-09T07:35:32.812Z,5.93
2024-05-09T07:38:00.038Z,5.28
2024-05-09T07:40:34.808Z,5.10
2024-05-09T07:43:04.440Z,5.88
2024-05-09T07:45:48.028Z,4.68
2024-05-09T07:52:37.274Z,6.18
2024-05-09T07:53:45.196Z,5.75
2024-05-09T07:56:15.727Z,4.85
2024-05-09T07:58:43.825Z,7.80
2024-05-09T08:01:10.807Z,5.25
2024-05-09T08:03:38.366Z,5.78
2024-05-09T08:06:08.140Z,5.80
2024-05-09T08:08:35.114Z,5.03
2024-05-09T08:11:02.839Z,5.50
2024-05-09T08:13:29.778Z,5.13
2024-05-09T08:15:56.868Z,5.10
2024-05-09T08:18:23.994Z,5.80
2024-05-09T08:20:51.050Z,5.07
2024-05-09T08:23:20.634Z,4.72
2024-05-09T08:25:47.440Z,5.53
2024-05-09T08:28:14.547Z,5.03
2024-05-09T08:30:42.178Z,4.80
2024-05-09T08:33:09.234Z,6.68
2024-05-09T08:35:36.092Z,6.40
2024-05-09T08:38:04.515Z,6.43
2024-05-09T08:40:36.733Z,5.68
2024-05-09T08:43:07.880Z,6.13
2024-05-09T08:45:35.747Z,6.13
2024-05-09T08:48:03.095Z,6.07
2024-05-09T08:50:37.573Z,7.22
2024-05-09T08:53:06.239Z,6.25
2024-05-09T08:55:37.285Z,5.95
2024-05-09T08:58:07.172Z,5.40
2024-05-09T09:00:37.219Z,6.10
2024-05-09T09:03:09.014Z,5.68
2024-05-09T09:05:38.356Z,5.50
2024-05-09T09:08:08.882Z,5.53
2024-05-09T09:10:39.703Z,5.15
2024-05-09T09:13:06.802Z,5.05
2024-05-09T09:15:33.714Z,5.93
2024-05-09T09:18:01.077Z,5.93
2024-05-09T09:20:35.775Z,4.93
2024-05-09T09:23:04.734Z,4.82
2024-05-09T09:25:32.369Z,5.70
2024-05-09T09:28:02.038Z,5.28
2024-05-09T09:30:36.317Z,5.15
2024-05-09T09:33:05.506Z,5.82
2024-05-09T09:35:32.788Z,5.72
2024-05-09T09:38:03.106Z,5.13
2024-05-09T09:40:36.210Z,5.05
2024-05-09T09:43:14.187Z,4.72
2024-05-09T09:45:43.239Z,4.68
2024-05-09T09:48:10.928Z,5.22
2024-05-09T09:50:38.869Z,5.07
2024-05-09T09:53:07.380Z,4.72
2024-05-09T09:55:35.626Z,4.90
2024-05-09T09:58:04.158Z,4.88
2024-05-09T10:00:34.395Z,5.07
2024-05-09T10:03:02.519Z,5.07
2024-05-09T10:05:30.273Z,3.97
2024-05-09T10:07:58.502Z,4.53
2024-05-09T10:10:32.260Z,4.80
2024-05-09T10:13:00.893Z,4.78
2024-05-09T10:15:28.108Z,5.00
2024-05-09T10:18:04.817Z,4.95
2024-05-09T10:20:40.207Z,6.10
2024-05-09T10:25:55.583Z,5.15
2024-05-09T10:28:25.705Z,5.00
2024-05-09T10:31:02.069Z,5.75
2024-05-09T10:33:39.139Z,5.38
2024-05-09T10:36:11.627Z,5.65
2024-05-09T10:38:40.143Z,5.50
2024-05-09T10:41:08.840Z,5.00
2024-05-09T10:43:39.133Z,4.70
2024-05-09T10:46:06.568Z,4.57
2024-05-09T10:48:33.718Z,5.13
2024-05-09T10:51:04.153Z,5.10
2024-05-09T10:53:31.052Z,5.15
2024-05-09T10:55:58.020Z,5.15
2024-05-09T10:58:25.437Z,4.53
2024-05-09T11:00:54.293Z,4.30
2024-05-09T11:03:23.168Z,4.18
2024-05-09T11:05:50.776Z,4.10
2024-05-09T11:08:21.695Z,4.38
2024-05-09T11:10:50.841Z,4.43
2024-05-09T11:13:26.808Z,4.35
2024-05-09T11:15:53.666Z,4.50
2024-05-09T11:18:24.648Z,3.88
2024-05-09T11:20:53.168Z,3.80
2024-05-09T11:23:23.941Z,3.70
2024-05-09T11:25:51.123Z,3.75
2024-05-09T11:28:18.098Z,3.75
2024-05-09T11:30:45.150Z,3.72
2024-05-09T11:33:12.087Z,3.42
2024-05-09T11:35:39.105Z,3.67
2024-05-09T11:38:05.999Z,3.47
2024-05-09T11:40:35.564Z,3.20
2024-05-09T11:43:02.507Z,3.58
2024-05-09T11:45:29.436Z,3.50
2024-05-09T11:47:56.454Z,3.90
2024-05-09T11:50:29.809Z,4.55
2024-05-09T11:52:59.834Z,5.32
2024-05-09T11:55:28.249Z,5.25
2024-05-09T11:57:58.290Z,4.80
2024-05-09T12:00:33.748Z,4.90
2024-05-09T12:03:04.378Z,4.10
2024-05-09T12:05:31.532Z,5.07
2024-05-09T12:07:58.588Z,5.30
2024-05-09T12:10:32.698Z,5.03
2024-05-09T12:13:06.693Z,4.57
2024-05-09T12:15:35.592Z,4.68
2024-05-09T12:18:04.140Z,4.00
2024-05-09T12:20:36.969Z,3.00
2024-05-09T12:23:06.813Z,3.80
2024-05-09T12:25:33.862Z,4.25
2024-05-09T12:28:01.218Z,3.67
2024-05-09T12:30:36.722Z,3.85
2024-05-09T12:33:07.609Z,4.13
2024-05-09T12:35:34.765Z,3.65
2024-05-09T12:38:01.920Z,3.30
2024-05-09T12:40:35.674Z,2.70
2024-05-09T12:43:06.143Z,3.30
2024-05-09T12:45:37.250Z,3.63
2024-05-09T12:48:05.472Z,4.20
2024-05-09T12:50:34.233Z,4.13
2024-05-09T12:53:05.195Z,3.50
2024-05-09T12:55:40.571Z,3.58
2024-05-09T12:58:15.608Z,3.38
2024-05-09T13:00:45.549Z,3.95
2024-05-09T13:03:13.053Z,3.70
2024-05-09T13:05:40.440Z,3.90
2024-05-09T13:08:07.609Z,3.58
2024-05-09T13:10:34.551Z,3.92
2024-05-09T13:13:02.195Z,4.10
2024-05-09T13:15:29.507Z,3.08
2024-05-09T13:18:01.944Z,3.85
2024-05-09T13:20:33.603Z,3.72
2024-05-09T13:23:02.973Z,3.70
2024-05-09T13:25:29.818Z,3.03
2024-05-09T13:27:57.295Z,3.42
2024-05-09T13:30:34.690Z,2.60
2024-05-09T13:33:09.392Z,2.25
2024-05-09T13:35:36.695Z,3.53
2024-05-09T13:38:04.852Z,3.58
2024-05-09T13:40:35.256Z,4.28
2024-05-09T13:43:03.666Z,4.13
2024-05-09T13:45:30.771Z,4.55
2024-05-09T13:47:58.480Z,3.72
2024-05-09T13:50:34.279Z,4.88
2024-05-09T13:53:03.450Z,4.93
2024-05-09T13:55:30.648Z,4.45
2024-05-09T13:57:57.625Z,4.60
2024-05-09T14:00:38.171Z,4.53
2024-05-09T14:03:12.115Z,4.00
2024-05-09T14:05:41.851Z,4.10
2024-05-09T14:08:09.083Z,3.55
2024-05-09T14:10:36.298Z,4.03
2024-05-09T14:13:03.387Z,4.13
2024-05-09T14:15:30.402Z,4.03
2024-05-09T14:17:57.403Z,3.60
2024-05-09T14:20:30.881Z,3.08
2024-05-09T14:23:01.849Z,3.10
2024-05-09T14:25:30.508Z,3.08
2024-05-09T14:27:57.972Z,4.40
2024-05-09T14:30:33.640Z,4.20
2024-05-09T14:33:04.335Z,4.28
2024-05-09T14:35:31.416Z,4.38
2024-05-09T14:38:01.143Z,4.65
2024-05-09T14:40:38.793Z,5.00
2024-05-09T14:43:11.034Z,4.20
2024-05-09T14:45:37.999Z,4.40
2024-05-09T14:48:05.558Z,5.25
2024-05-09T14:50:37.129Z,4.97
2024-05-09T14:53:10.744Z,4.50
2024-05-09T14:55:39.096Z,4.63
2024-05-09T14:58:17.657Z,4.68
2024-05-09T15:00:50.866Z,4.35
2024-05-09T15:03:21.114Z,4.72
2024-05-09T15:05:49.147Z,4.50
2024-05-09T15:08:19.391Z,4.45
2024-05-09T15:10:46.744Z,4.82
2024-05-09T15:13:16.477Z,4.35
2024-05-09T15:15:44.059Z,4.28
2024-05-09T15:18:11.254Z,4.05
2024-05-09T15:20:38.461Z,4.20
2024-05-09T15:23:06.993Z,4.05
2024-05-09T15:25:37.218Z,3.38
2024-05-09T15:28:04.821Z,3.92
2024-05-09T15:30:33.685Z,3.80
2024-05-09T15:33:01.901Z,4.57
2024-05-09T15:35:29.081Z,4.20
2024-05-09T15:37:56.241Z,3.72
2024-05-09T15:40:31.732Z,4.45
2024-05-09T15:43:10.120Z,4.35
2024-05-09T15:45:38.931Z,4.07
2024-05-09T15:48:08.106Z,3.63
2024-05-09T15:50:39.331Z,4.03
2024-05-09T15:53:09.924Z,3.47
2024-05-09T15:55:37.489Z,3.33
2024-05-09T15:58:07.838Z,3.75
2024-05-09T16:00:39.191Z,3.60
2024-05-09T16:03:10.019Z,3.72
2024-05-09T16:05:37.542Z,3.92
2024-05-09T16:08:05.833Z,3.15
2024-05-09T16:10:34.340Z,4.00
2024-05-09T16:13:03.338Z,3.42
2024-05-09T16:15:33.676Z,3.85
2024-05-09T16:18:00.915Z,4.03
2024-05-09T16:20:37.312Z,4.15
2024-05-09T16:23:08.522Z,4.80
2024-05-09T16:25:35.708Z,4.30
2024-05-09T16:28:05.754Z,3.97
2024-05-09T16:30:38.331Z,4.13
2024-05-09T16:33:06.308Z,3.45
2024-05-09T16:35:33.239Z,3.75
2024-05-09T16:38:01.677Z,3.90
2024-05-09T16:40:36.340Z,3.58
2024-05-09T16:43:07.191Z,3.60
2024-05-09T16:45:34.535Z,4.10
2024-05-09T16:48:04.965Z,4.50
2024-05-09T16:50:34.306Z,3.95
2024-05-09T16:53:02.913Z,4.43
2024-05-09T16:55:30.168Z,3.70
2024-05-09T16:57:58.001Z,3.78
2024-05-09T17:00:35.883Z,3.83
2024-05-09T17:03:13.285Z,3.80
2024-05-09T17:05:41.923Z,4.05
2024-05-09T17:08:09.344Z,4.18
2024-05-09T17:10:36.685Z,3.70
2024-05-09T17:13:06.186Z,3.80
2024-05-09T17:15:34.570Z,4.53
2024-05-09T17:18:01.889Z,4.03
2024-05-09T17:20:35.192Z,3.95
2024-05-09T17:23:05.953Z,4.30
2024-05-09T17:25:33.567Z,4.60
2024-05-09T17:28:00.850Z,4.40
2024-05-09T17:30:32.631Z,4.25
2024-05-09T17:33:03.495Z,3.65
2024-05-09T17:35:33.248Z,4.75
2024-05-09T17:38:00.261Z,3.83
2024-05-09T17:40:32.743Z,4.10
2024-05-09T17:45:30.343Z,4.03
2024-05-09T17:47:58.057Z,4.25
2024-05-09T17:50:31.479Z,4.55
2024-05-09T17:53:05.819Z,4.50
2024-05-09T17:55:32.949Z,4.63
2024-05-09T17:57:59.999Z,4.05
2024-05-09T18:02:57.293Z,3.95
2024-05-09T18:05:24.429Z,3.95
2024-05-09T18:07:51.407Z,4.03
2024-05-09T18:10:26.052Z,3.92
2024-05-09T18:12:59.848Z,3.95
2024-05-09T18:15:26.686Z,4.40
2024-05-09T18:17:54.096Z,5.18
2024-05-09T18:20:32.091Z,4.03
2024-05-09T18:23:06.958Z,4.85
2024-05-09T18:25:36.502Z,4.70
2024-05-09T18:28:03.820Z,4.40
2024-05-09T18:30:34.550Z,4.30
2024-05-09T18:33:04.119Z,4.82
2024-05-09T18:35:31.430Z,5.55
2024-05-09T18:37:58.319Z,4.45
2024-05-09T18:40:32.545Z,4.72
2024-05-09T18:43:07.906Z,4.68
2024-05-09T18:45:36.676Z,4.70
2024-05-09T18:48:04.840Z,5.25
2024-05-09T18:50:36.294Z,4.88
2024-05-09T18:53:06.540Z,4.75
2024-05-09T18:55:33.713Z,5.10
2024-05-09T18:58:00.872Z,4.70
2024-05-09T19:00:35.345Z,5.03
2024-05-09T19:03:06.881Z,4.57
2024-05-09T19:05:36.411Z,4.90
2024-05-09T19:08:03.969Z,4.95
2024-05-09T19:10:34.499Z,5.68
2024-05-09T19:13:06.683Z,5.43
2024-05-09T19:15:40.663Z,4.85
2024-05-09T19:18:08.493Z,4.72
2024-05-09T19:20:36.642Z,4.85
2024-05-09T19:23:05.154Z,4.45
2024-05-09T19:25:32.650Z,5.75
2024-05-09T19:27:59.626Z,4.57
2024-05-09T19:30:36.404Z,5.20
2024-05-09T19:33:12.019Z,4.80
2024-05-09T19:35:40.019Z,5.95
2024-05-09T19:38:07.087Z,5.38
2024-05-09T19:40:35.164Z,5.18
2024-05-09T19:43:04.482Z,6.07
2024-05-09T19:45:32.521Z,5.20
2024-05-09T19:48:00.105Z,6.20
2024-05-09T19:50:41.837Z,5.47
2024-05-09T19:53:11.670Z,6.00
2024-05-09T19:55:39.323Z,5.28
2024-05-09T19:58:07.705Z,5.93
2024-05-09T20:00:37.895Z,6.03
2024-05-09T20:03:07.389Z,6.45
2024-05-09T20:05:37.890Z,6.50
2024-05-09T20:08:06.235Z,6.63
2024-05-09T20:10:35.422Z,6.30
2024-05-09T20:13:04.474Z,6.47
2024-05-09T20:15:34.105Z,5.82
2024-05-09T20:18:01.493Z,5.93
2024-05-09T20:20:36.357Z,5.90
2024-05-09T20:23:10.335Z,6.10
2024-05-09T20:25:38.182Z,6.55
2024-05-09T20:28:06.250Z,6.85
2024-05-09T20:30:34.557Z,6.18
2024-05-09T20:33:04.420Z,6.88
2024-05-09T20:35:33.023Z,7.07
2024-05-09T20:38:00.636Z,6.70
2024-05-09T20:40:34.628Z,7.50
2024-05-09T20:43:05.696Z,7.35
2024-05-09T20:45:33.431Z,7.72
2024-05-09T20:48:00.659Z,6.85
2024-05-09T20:50:36.151Z,5.90
2024-05-09T20:53:08.930Z,7.53
2024-05-09T20:55:38.563Z,6.88
2024-05-09T20:58:05.714Z,6.85
2024-05-09T21:00:39.209Z,6.53
2024-05-09T21:03:10.905Z,6.57
2024-05-09T21:05:38.659Z,6.60
2024-05-09T21:08:06.539Z,7.03
2024-05-09T21:10:34.720Z,6.97
2024-05-09T21:13:05.852Z,7.20
2024-05-09T21:15:33.638Z,7.45
2024-05-09T21:18:00.578Z,7.22
2024-05-09T21:20:31.499Z,7.35
2024-05-09T21:23:00.651Z,7.82
2024-05-09T21:25:27.732Z,7.00
2024-05-09T21:27:54.730Z,6.85
2024-05-09T21:30:32.884Z,7.10
2024-05-09T21:35:35.029Z,7.50
2024-05-09T21:38:01.868Z,7.88
2024-05-09T21:40:34.287Z,6.82
2024-05-09T21:43:04.022Z,7.15
2024-05-09T21:45:34.187Z,7.75
2024-05-09T21:48:03.366Z,8.63
2024-05-09T21:50:37.025Z,7.95
2024-05-09T21:53:07.709Z,7.97
2024-05-09T21:55:36.961Z,8.32
2024-05-09T21:58:04.235Z,7.88
2024-05-09T22:00:37.542Z,7.82
2024-05-09T22:03:06.734Z,8.13
2024-05-09T22:05:34.454Z,8.68
2024-05-09T22:08:01.605Z,7.30
2024-05-09T22:10:33.903Z,8.07
2024-05-09T22:13:02.943Z,7.73
2024-05-09T22:15:29.958Z,8.13
2024-05-09T22:17:59.586Z,7.78
2024-05-09T22:20:34.323Z,7.82
2024-05-09T22:23:05.405Z,7.85
2024-05-09T22:25:33.094Z,7.55
2024-05-09T22:28:00.896Z,8.65
2024-05-09T22:30:35.617Z,7.80
2024-05-09T22:33:10.416Z,7.43
2024-05-09T22:35:38.885Z,8.55
2024-05-09T22:38:06.008Z,8.45
2024-05-09T22:40:42.588Z,7.75
2024-05-09T22:43:21.487Z,8.93
2024-05-09T22:45:50.530Z,8.68
2024-05-09T22:48:20.694Z,7.53
2024-05-09T22:50:47.594Z,8.20
2024-05-09T22:53:14.685Z,8.65
2024-05-09T22:55:41.706Z,7.85
2024-05-09T22:58:08.667Z,9.45
2024-05-09T23:00:35.727Z,8.52
2024-05-09T23:03:03.313Z,9.02
2024-05-09T23:05:34.826Z,8.40
2024-05-09T23:08:02.110Z,9.35
2024-05-09T23:10:35.440Z,8.95
2024-05-09T23:13:05.350Z,10.02
2024-05-09T23:15:32.227Z,9.90
2024-05-09T23:17:59.428Z,9.55
2024-05-09T23:20:33.834Z,9.65
2024-05-09T23:23:07.974Z,10.00
2024-05-09T23:25:34.986Z,10.20
2024-05-09T23:28:01.983Z,9.63
2024-05-09T23:30:36.543Z,10.35
2024-05-09T23:33:07.075Z,10.73
2024-05-09T23:35:34.051Z,9.98
2024-05-09T23:38:00.955Z,10.73
2024-05-09T23:40:37.947Z,10.80
2024-05-09T23:43:07.658Z,9.85
2024-05-09T23:45:35.010Z,10.55
2024-05-09T23:48:02.295Z,10.30
2024-05-09T23:50:35.001Z,10.85
2024-05-09T23:53:05.747Z,11.23
2024-05-09T23:55:35.549Z,12.13
2024-05-09T23:58:02.569Z,11.13
